sensor_id;sensor_type;location;lat;lon;timestamp;temperature;humidity
13742;DHT22;8461;52.356;10.704;2022-10-14T00:01:35;10.80;99.90
13742;DHT22;8461;52.356;10.704;2022-10-14T00:04:01;10.80;99.90
13742;DHT22;8461;52.356;10.704;2022-10-14T00:06:29;10.70;99.90
13742;DHT22;8461;52.356;10.704;2022-10-14T00:08:58;10.70;99.90
13742;DHT22;8461;52.356;10.704;2022-10-14T00:11:27;10.60;99.90
13742;DHT22;8461;52.356;10.704;2022-10-14T00:13:57;10.70;99.90
13742;DHT22;8461;52.356;10.704;2022-10-14T00:16:26;10.70;99.90
13742;DHT22;8461;52.356;10.704;2022-10-14T00:18:52;10.70;99.90
13742;DHT22;8461;52.356;10.704;2022-10-14T00:21:18;10.60;99.90
13742;DHT22;8461;52.356;10.704;2022-10-14T00:23:44;10.60;99.90
13742;DHT22;8461;52.356;10.704;2022-10-14T00:26:19;10.60;99.90
13742;DHT22;8461;52.356;10.704;2022-10-14T00:28:45;10.50;99.90
13742;DHT22;8461;52.356;10.704;2022-10-14T00:31:10;10.50;99.90
13742;DHT22;8461;52.356;10.704;2022-10-14T00:33:36;10.50;99.90
13742;DHT22;8461;52.356;10.704;2022-10-14T00:36:03;10.50;99.90
13742;DHT22;8461;52.356;10.704;2022-10-14T00:38:29;10.60;99.90
13742;DHT22;8461;52.356;10.704;2022-10-14T00:40:55;10.60;99.90
13742;DHT22;8461;52.356;10.704;2022-10-14T00:43:22;10.60;99.90
13742;DHT22;8461;52.356;10.704;2022-10-14T00:45:48;10.50;99.90
13742;DHT22;8461;52.356;10.704;2022-10-14T00:48:13;10.50;99.90
13742;DHT22;8461;52.356;10.704;2022-10-14T00:50:42;10.50;99.90
13742;DHT22;8461;52.356;10.704;2022-10-14T00:53:10;10.50;99.90
13742;DHT22;8461;52.356;10.704;2022-10-14T00:55:37;10.60;99.90
13742;DHT22;8461;52.356;10.704;2022-10-14T00:58:04;10.60;99.90
13742;DHT22;8461;52.356;10.704;2022-10-14T01:00:30;10.60;99.90
13742;DHT22;8461;52.356;10.704;2022-10-14T01:02:56;10.60;99.90
13742;DHT22;8461;52.356;10.704;2022-10-14T01:05:22;10.60;99.90
13742;DHT22;8461;52.356;10.704;2022-10-14T01:08:01;10.60;99.90
13742;DHT22;8461;52.356;10.704;2022-10-14T01:10:41;10.70;99.90
13742;DHT22;8461;52.356;10.704;2022-10-14T01:13:20;10.70;99.90
13742;DHT22;8461;52.356;10.704;2022-10-14T01:15:56;10.70;99.90
13742;DHT22;8461;52.356;10.704;2022-10-14T01:21:21;10.70;99.90
13742;DHT22;8461;52.356;10.704;2022-10-14T01:24:04;10.80;99.90
13742;DHT22;8461;52.356;10.704;2022-10-14T01:29:56;10.80;99.90
13742;DHT22;8461;52.356;10.704;2022-10-14T01:32:35;10.90;99.90
13742;DHT22;8461;52.356;10.704;2022-10-14T01:35:09;10.90;99.90
13742;DHT22;8461;52.356;10.704;2022-10-14T01:37:44;10.90;99.90
13742;DHT22;8461;52.356;10.704;2022-10-14T01:40:20;10.90;99.90
13742;DHT22;8461;52.356;10.704;2022-10-14T01:42:47;10.90;99.90
13742;DHT22;8461;52.356;10.704;2022-10-14T01:45:19;11.00;99.90
13742;DHT22;8461;52.356;10.704;2022-10-14T01:47:49;10.90;99.90
13742;DHT22;8461;52.356;10.704;2022-10-14T01:50:17;10.90;99.90
13742;DHT22;8461;52.356;10.704;2022-10-14T01:52:51;11.00;99.90
13742;DHT22;8461;52.356;10.704;2022-10-14T01:55:22;11.00;99.90
13742;DHT22;8461;52.356;10.704;2022-10-14T01:57:50;11.00;99.90
13742;DHT22;8461;52.356;10.704;2022-10-14T02:00:16;11.00;99.90
13742;DHT22;8461;52.356;10.704;2022-10-14T02:02:43;11.10;99.90
13742;DHT22;8461;52.356;10.704;2022-10-14T02:16:24;11.10;99.90
13742;DHT22;8461;52.356;10.704;2022-10-14T02:21:45;11.10;99.90
13742;DHT22;8461;52.356;10.704;2022-10-14T02:26:50;11.20;99.90
13742;DHT22;8461;52.356;10.704;2022-10-14T02:29:20;11.20;99.90
13742;DHT22;8461;52.356;10.704;2022-10-14T02:31:48;11.20;99.90
13742;DHT22;8461;52.356;10.704;2022-10-14T02:34:18;11.30;99.90
13742;DHT22;8461;52.356;10.704;2022-10-14T02:36:45;11.30;99.90
13742;DHT22;8461;52.356;10.704;2022-10-14T02:39:14;11.30;99.90
13742;DHT22;8461;52.356;10.704;2022-10-14T02:41:42;11.30;99.90
13742;DHT22;8461;52.356;10.704;2022-10-14T02:44:07;11.30;99.90
13742;DHT22;8461;52.356;10.704;2022-10-14T02:46:34;11.20;99.90
13742;DHT22;8461;52.356;10.704;2022-10-14T02:48:59;11.20;99.90
13742;DHT22;8461;52.356;10.704;2022-10-14T02:51:25;11.20;99.90
13742;DHT22;8461;52.356;10.704;2022-10-14T02:53:50;11.20;99.90
13742;DHT22;8461;52.356;10.704;2022-10-14T02:56:16;11.30;99.90
13742;DHT22;8461;52.356;10.704;2022-10-14T02:58:42;11.30;99.90
13742;DHT22;8461;52.356;10.704;2022-10-14T03:01:08;11.30;99.90
13742;DHT22;8461;52.356;10.704;2022-10-14T03:03:34;11.30;99.90
13742;DHT22;8461;52.356;10.704;2022-10-14T03:05:59;11.40;99.90
13742;DHT22;8461;52.356;10.704;2022-10-14T03:08:25;11.40;99.90
13742;DHT22;8461;52.356;10.704;2022-10-14T03:10:50;11.40;99.90
13742;DHT22;8461;52.356;10.704;2022-10-14T03:13:16;11.40;99.90
13742;DHT22;8461;52.356;10.704;2022-10-14T03:15:41;11.40;99.90
13742;DHT22;8461;52.356;10.704;2022-10-14T03:18:07;11.40;99.90
13742;DHT22;8461;52.356;10.704;2022-10-14T03:20:32;11.40;99.90
13742;DHT22;8461;52.356;10.704;2022-10-14T03:22:58;11.50;99.90
13742;DHT22;8461;52.356;10.704;2022-10-14T03:25:23;11.50;99.90
13742;DHT22;8461;52.356;10.704;2022-10-14T03:27:49;11.40;99.90
13742;DHT22;8461;52.356;10.704;2022-10-14T03:30:15;11.50;99.90
13742;DHT22;8461;52.356;10.704;2022-10-14T03:32:40;11.50;99.90
13742;DHT22;8461;52.356;10.704;2022-10-14T03:35:06;11.50;99.90
13742;DHT22;8461;52.356;10.704;2022-10-14T03:37:32;11.50;99.90
13742;DHT22;8461;52.356;10.704;2022-10-14T03:39:57;11.60;99.90
13742;DHT22;8461;52.356;10.704;2022-10-14T03:42:23;11.60;99.90
13742;DHT22;8461;52.356;10.704;2022-10-14T03:44:48;11.60;99.90
13742;DHT22;8461;52.356;10.704;2022-10-14T03:47:14;11.70;99.90
13742;DHT22;8461;52.356;10.704;2022-10-14T03:49:40;11.70;99.90
13742;DHT22;8461;52.356;10.704;2022-10-14T03:52:05;11.80;99.90
13742;DHT22;8461;52.356;10.704;2022-10-14T03:54:31;11.80;99.90
13742;DHT22;8461;52.356;10.704;2022-10-14T03:56:56;11.70;99.90
13742;DHT22;8461;52.356;10.704;2022-10-14T03:59:22;11.70;99.90
13742;DHT22;8461;52.356;10.704;2022-10-14T04:01:47;11.70;99.90
13742;DHT22;8461;52.356;10.704;2022-10-14T04:04:13;11.70;99.90
13742;DHT22;8461;52.356;10.704;2022-10-14T04:06:38;11.70;99.90
13742;DHT22;8461;52.356;10.704;2022-10-14T04:09:04;11.70;99.90
13742;DHT22;8461;52.356;10.704;2022-10-14T04:11:30;11.70;99.90
13742;DHT22;8461;52.356;10.704;2022-10-14T04:13:59;11.70;99.90
13742;DHT22;8461;52.356;10.704;2022-10-14T04:16:25;11.70;99.90
13742;DHT22;8461;52.356;10.704;2022-10-14T04:18:52;11.70;99.90
13742;DHT22;8461;52.356;10.704;2022-10-14T04:21:17;11.70;99.90
13742;DHT22;8461;52.356;10.704;2022-10-14T04:23:43;11.80;99.90
13742;DHT22;8461;52.356;10.704;2022-10-14T04:26:08;11.80;99.90
13742;DHT22;8461;52.356;10.704;2022-10-14T04:28:35;11.70;99.90
13742;DHT22;8461;52.356;10.704;2022-10-14T04:31:01;11.70;99.90
13742;DHT22;8461;52.356;10.704;2022-10-14T04:33:26;11.70;99.90
13742;DHT22;8461;52.356;10.704;2022-10-14T04:36:00;11.70;99.90
13742;DHT22;8461;52.356;10.704;2022-10-14T04:38:26;11.70;99.90
13742;DHT22;8461;52.356;10.704;2022-10-14T04:40:52;11.70;99.90
13742;DHT22;8461;52.356;10.704;2022-10-14T04:43:18;11.70;99.90
13742;DHT22;8461;52.356;10.704;2022-10-14T04:45:43;11.70;99.90
13742;DHT22;8461;52.356;10.704;2022-10-14T04:48:09;11.80;99.90
13742;DHT22;8461;52.356;10.704;2022-10-14T04:50:34;11.80;99.90
13742;DHT22;8461;52.356;10.704;2022-10-14T04:53:00;11.80;99.90
13742;DHT22;8461;52.356;10.704;2022-10-14T04:55:25;11.80;99.90
13742;DHT22;8461;52.356;10.704;2022-10-14T04:57:51;11.90;99.90
13742;DHT22;8461;52.356;10.704;2022-10-14T05:00:17;11.90;99.90
13742;DHT22;8461;52.356;10.704;2022-10-14T05:02:42;11.90;99.90
13742;DHT22;8461;52.356;10.704;2022-10-14T05:05:08;11.80;99.90
13742;DHT22;8461;52.356;10.704;2022-10-14T05:07:34;11.90;99.90
13742;DHT22;8461;52.356;10.704;2022-10-14T05:09:59;11.80;99.90
13742;DHT22;8461;52.356;10.704;2022-10-14T05:12:26;11.90;99.90
13742;DHT22;8461;52.356;10.704;2022-10-14T05:14:51;11.90;99.90
13742;DHT22;8461;52.356;10.704;2022-10-14T05:17:17;11.90;99.90
13742;DHT22;8461;52.356;10.704;2022-10-14T05:19:43;11.90;99.90
13742;DHT22;8461;52.356;10.704;2022-10-14T05:22:08;11.80;99.90
13742;DHT22;8461;52.356;10.704;2022-10-14T05:24:34;11.90;99.90
13742;DHT22;8461;52.356;10.704;2022-10-14T05:27:00;11.90;99.90
13742;DHT22;8461;52.356;10.704;2022-10-14T05:29:25;11.90;99.90
13742;DHT22;8461;52.356;10.704;2022-10-14T05:31:51;11.90;99.90
13742;DHT22;8461;52.356;10.704;2022-10-14T05:34:16;11.80;99.90
13742;DHT22;8461;52.356;10.704;2022-10-14T05:36:42;11.80;99.90
13742;DHT22;8461;52.356;10.704;2022-10-14T05:39:07;11.70;99.90
13742;DHT22;8461;52.356;10.704;2022-10-14T05:41:33;11.70;99.90
13742;DHT22;8461;52.356;10.704;2022-10-14T05:43:59;11.70;99.90
13742;DHT22;8461;52.356;10.704;2022-10-14T05:46:24;11.70;99.90
13742;DHT22;8461;52.356;10.704;2022-10-14T05:48:50;11.80;99.90
13742;DHT22;8461;52.356;10.704;2022-10-14T05:51:15;11.90;99.90
13742;DHT22;8461;52.356;10.704;2022-10-14T05:53:45;11.90;99.90
13742;DHT22;8461;52.356;10.704;2022-10-14T05:56:11;11.90;99.90
13742;DHT22;8461;52.356;10.704;2022-10-14T05:58:37;11.90;99.90
13742;DHT22;8461;52.356;10.704;2022-10-14T06:01:05;11.90;99.90
13742;DHT22;8461;52.356;10.704;2022-10-14T06:03:31;11.90;99.90
13742;DHT22;8461;52.356;10.704;2022-10-14T06:05:56;11.90;99.90
13742;DHT22;8461;52.356;10.704;2022-10-14T06:08:23;11.80;99.90
13742;DHT22;8461;52.356;10.704;2022-10-14T06:10:49;11.80;99.90
13742;DHT22;8461;52.356;10.704;2022-10-14T06:13:15;11.90;99.90
13742;DHT22;8461;52.356;10.704;2022-10-14T06:15:40;11.90;99.90
13742;DHT22;8461;52.356;10.704;2022-10-14T06:18:06;11.90;99.90
13742;DHT22;8461;52.356;10.704;2022-10-14T06:20:32;11.80;99.90
13742;DHT22;8461;52.356;10.704;2022-10-14T06:22:58;11.90;99.90
13742;DHT22;8461;52.356;10.704;2022-10-14T06:25:24;11.90;99.90
13742;DHT22;8461;52.356;10.704;2022-10-14T06:27:50;12.00;99.90
13742;DHT22;8461;52.356;10.704;2022-10-14T06:30:16;12.00;99.90
13742;DHT22;8461;52.356;10.704;2022-10-14T06:32:41;12.10;99.90
13742;DHT22;8461;52.356;10.704;2022-10-14T06:35:07;12.10;99.90
13742;DHT22;8461;52.356;10.704;2022-10-14T06:37:33;12.10;99.90
13742;DHT22;8461;52.356;10.704;2022-10-14T06:39:58;12.10;99.90
13742;DHT22;8461;52.356;10.704;2022-10-14T06:42:24;12.10;99.90
13742;DHT22;8461;52.356;10.704;2022-10-14T06:44:49;12.10;99.90
13742;DHT22;8461;52.356;10.704;2022-10-14T06:47:15;12.10;99.90
13742;DHT22;8461;52.356;10.704;2022-10-14T06:49:40;12.20;99.90
13742;DHT22;8461;52.356;10.704;2022-10-14T06:52:06;12.00;99.90
13742;DHT22;8461;52.356;10.704;2022-10-14T06:54:31;12.10;99.90
13742;DHT22;8461;52.356;10.704;2022-10-14T06:56:57;12.10;99.90
13742;DHT22;8461;52.356;10.704;2022-10-14T06:59:23;12.20;99.90
13742;DHT22;8461;52.356;10.704;2022-10-14T07:01:48;12.20;99.90
13742;DHT22;8461;52.356;10.704;2022-10-14T07:04:14;12.30;99.90
13742;DHT22;8461;52.356;10.704;2022-10-14T07:06:39;12.30;99.90
13742;DHT22;8461;52.356;10.704;2022-10-14T07:09:05;12.40;99.90
13742;DHT22;8461;52.356;10.704;2022-10-14T07:11:30;12.50;99.90
13742;DHT22;8461;52.356;10.704;2022-10-14T07:13:56;12.50;99.90
13742;DHT22;8461;52.356;10.704;2022-10-14T07:16:22;12.50;99.90
13742;DHT22;8461;52.356;10.704;2022-10-14T07:18:47;12.60;99.90
13742;DHT22;8461;52.356;10.704;2022-10-14T07:21:13;12.60;99.90
13742;DHT22;8461;52.356;10.704;2022-10-14T07:23:39;12.60;99.90
13742;DHT22;8461;52.356;10.704;2022-10-14T07:26:04;12.70;99.90
13742;DHT22;8461;52.356;10.704;2022-10-14T07:28:30;12.70;99.90
13742;DHT22;8461;52.356;10.704;2022-10-14T07:33:22;12.90;99.90
13742;DHT22;8461;52.356;10.704;2022-10-14T07:35:48;13.10;99.90
13742;DHT22;8461;52.356;10.704;2022-10-14T07:38:13;13.20;99.90
13742;DHT22;8461;52.356;10.704;2022-10-14T07:40:39;13.30;99.90
13742;DHT22;8461;52.356;10.704;2022-10-14T07:43:04;13.50;99.90
13742;DHT22;8461;52.356;10.704;2022-10-14T07:45:30;13.60;99.90
13742;DHT22;8461;52.356;10.704;2022-10-14T07:48:00;13.70;99.90
13742;DHT22;8461;52.356;10.704;2022-10-14T07:50:25;13.70;99.90
13742;DHT22;8461;52.356;10.704;2022-10-14T07:52:51;13.90;99.90
13742;DHT22;8461;52.356;10.704;2022-10-14T07:55:16;14.00;99.90
13742;DHT22;8461;52.356;10.704;2022-10-14T07:57:42;14.00;99.90
13742;DHT22;8461;52.356;10.704;2022-10-14T08:00:08;14.00;99.90
13742;DHT22;8461;52.356;10.704;2022-10-14T08:02:34;13.90;99.90
13742;DHT22;8461;52.356;10.704;2022-10-14T08:04:59;13.90;99.90
13742;DHT22;8461;52.356;10.704;2022-10-14T08:07:26;14.00;99.90
13742;DHT22;8461;52.356;10.704;2022-10-14T08:09:52;14.00;99.90
13742;DHT22;8461;52.356;10.704;2022-10-14T08:12:20;14.00;99.90
13742;DHT22;8461;52.356;10.704;2022-10-14T08:14:46;14.10;99.90
13742;DHT22;8461;52.356;10.704;2022-10-14T08:17:11;14.00;99.90
13742;DHT22;8461;52.356;10.704;2022-10-14T08:19:37;14.10;99.90
13742;DHT22;8461;52.356;10.704;2022-10-14T08:22:02;14.00;99.90
13742;DHT22;8461;52.356;10.704;2022-10-14T08:24:28;14.00;99.90
13742;DHT22;8461;52.356;10.704;2022-10-14T08:26:55;14.10;99.90
13742;DHT22;8461;52.356;10.704;2022-10-14T08:29:22;14.10;99.90
13742;DHT22;8461;52.356;10.704;2022-10-14T08:31:49;14.20;99.90
13742;DHT22;8461;52.356;10.704;2022-10-14T08:34:15;14.30;99.90
13742;DHT22;8461;52.356;10.704;2022-10-14T08:36:40;14.30;99.90
13742;DHT22;8461;52.356;10.704;2022-10-14T08:39:06;14.40;99.90
13742;DHT22;8461;52.356;10.704;2022-10-14T08:42:06;14.40;99.90
13742;DHT22;8461;52.356;10.704;2022-10-14T08:45:07;14.40;99.90
13742;DHT22;8461;52.356;10.704;2022-10-14T08:47:38;14.40;99.90
13742;DHT22;8461;52.356;10.704;2022-10-14T08:50:37;14.30;99.90
13742;DHT22;8461;52.356;10.704;2022-10-14T08:53:18;14.40;99.90
13742;DHT22;8461;52.356;10.704;2022-10-14T08:55:50;14.40;99.90
13742;DHT22;8461;52.356;10.704;2022-10-14T08:58:47;14.60;99.90
13742;DHT22;8461;52.356;10.704;2022-10-14T09:01:33;14.70;99.90
13742;DHT22;8461;52.356;10.704;2022-10-14T09:04:04;15.00;99.90
13742;DHT22;8461;52.356;10.704;2022-10-14T09:06:33;15.20;99.90
13742;DHT22;8461;52.356;10.704;2022-10-14T09:09:19;15.30;99.90
13742;DHT22;8461;52.356;10.704;2022-10-14T09:11:55;15.30;99.90
13742;DHT22;8461;52.356;10.704;2022-10-14T09:14:26;15.40;99.90
13742;DHT22;8461;52.356;10.704;2022-10-14T09:17:00;15.40;99.90
13742;DHT22;8461;52.356;10.704;2022-10-14T09:19:34;15.50;99.90
13742;DHT22;8461;52.356;10.704;2022-10-14T09:22:02;15.50;99.90
13742;DHT22;8461;52.356;10.704;2022-10-14T09:24:33;15.40;99.90
13742;DHT22;8461;52.356;10.704;2022-10-14T09:27:05;15.40;99.90
13742;DHT22;8461;52.356;10.704;2022-10-14T09:29:58;15.40;99.90
13742;DHT22;8461;52.356;10.704;2022-10-14T09:32:34;15.40;99.90
13742;DHT22;8461;52.356;10.704;2022-10-14T09:35:02;15.80;99.90
13742;DHT22;8461;52.356;10.704;2022-10-14T09:37:33;15.90;99.90
13742;DHT22;8461;52.356;10.704;2022-10-14T09:40:28;15.90;99.90
13742;DHT22;8461;52.356;10.704;2022-10-14T09:45:57;15.80;99.90
13742;DHT22;8461;52.356;10.704;2022-10-14T09:48:46;15.80;99.90
13742;DHT22;8461;52.356;10.704;2022-10-14T09:51:22;15.80;99.90
13742;DHT22;8461;52.356;10.704;2022-10-14T09:53:55;15.90;99.90
13742;DHT22;8461;52.356;10.704;2022-10-14T09:56:38;16.10;99.90
13742;DHT22;8461;52.356;10.704;2022-10-14T09:59:19;16.10;99.90
13742;DHT22;8461;52.356;10.704;2022-10-14T10:02:02;16.10;99.90
13742;DHT22;8461;52.356;10.704;2022-10-14T10:04:42;16.20;99.90
13742;DHT22;8461;52.356;10.704;2022-10-14T10:07:30;16.20;99.90
13742;DHT22;8461;52.356;10.704;2022-10-14T10:09:58;16.10;99.90
13742;DHT22;8461;52.356;10.704;2022-10-14T10:12:32;16.30;99.90
13742;DHT22;8461;52.356;10.704;2022-10-14T10:15:00;16.60;99.90
13742;DHT22;8461;52.356;10.704;2022-10-14T10:17:37;16.60;99.90
13742;DHT22;8461;52.356;10.704;2022-10-14T10:20:41;16.50;99.90
13742;DHT22;8461;52.356;10.704;2022-10-14T10:23:22;16.40;99.90
13742;DHT22;8461;52.356;10.704;2022-10-14T10:25:51;16.50;99.90
13742;DHT22;8461;52.356;10.704;2022-10-14T10:28:25;16.50;99.90
13742;DHT22;8461;52.356;10.704;2022-10-14T10:31:35;16.50;99.90
13742;DHT22;8461;52.356;10.704;2022-10-14T10:36:32;16.70;99.90
13742;DHT22;8461;52.356;10.704;2022-10-14T10:47:35;16.90;99.90
13742;DHT22;8461;52.356;10.704;2022-10-14T10:50:36;17.10;99.90
13742;DHT22;8461;52.356;10.704;2022-10-14T11:04:56;16.80;99.90
13742;DHT22;8461;52.356;10.704;2022-10-14T11:13:37;17.60;99.90
13742;DHT22;8461;52.356;10.704;2022-10-14T11:19:11;18.00;99.90
13742;DHT22;8461;52.356;10.704;2022-10-14T11:22:06;18.00;99.90
13742;DHT22;8461;52.356;10.704;2022-10-14T11:24:56;18.10;99.90
13742;DHT22;8461;52.356;10.704;2022-10-14T11:27:43;18.30;99.90
13742;DHT22;8461;52.356;10.704;2022-10-14T11:41:35;17.70;99.90
13742;DHT22;8461;52.356;10.704;2022-10-14T11:46:35;17.70;99.90
13742;DHT22;8461;52.356;10.704;2022-10-14T11:51:54;17.80;99.90
13742;DHT22;8461;52.356;10.704;2022-10-14T11:57:22;18.00;99.90
13742;DHT22;8461;52.356;10.704;2022-10-14T12:03:25;18.30;99.90
13742;DHT22;8461;52.356;10.704;2022-10-14T12:06:10;18.00;99.90
13742;DHT22;8461;52.356;10.704;2022-10-14T12:11:36;18.30;99.90
13742;DHT22;8461;52.356;10.704;2022-10-14T12:14:22;18.20;99.90
13742;DHT22;8461;52.356;10.704;2022-10-14T12:16:50;18.20;99.90
13742;DHT22;8461;52.356;10.704;2022-10-14T12:19:24;18.10;99.90
13742;DHT22;8461;52.356;10.704;2022-10-14T12:24:25;17.80;99.90
13742;DHT22;8461;52.356;10.704;2022-10-14T12:26:57;17.80;99.90
13742;DHT22;8461;52.356;10.704;2022-10-14T12:29:30;17.50;99.90
13742;DHT22;8461;52.356;10.704;2022-10-14T12:34:38;17.40;99.90
13742;DHT22;8461;52.356;10.704;2022-10-14T12:42:26;17.60;99.90
13742;DHT22;8461;52.356;10.704;2022-10-14T12:44:56;17.70;99.90
13742;DHT22;8461;52.356;10.704;2022-10-14T12:47:29;17.70;99.90
13742;DHT22;8461;52.356;10.704;2022-10-14T12:50:00;17.70;99.90
13742;DHT22;8461;52.356;10.704;2022-10-14T12:52:36;17.60;99.90
13742;DHT22;8461;52.356;10.704;2022-10-14T12:55:17;17.60;99.90
13742;DHT22;8461;52.356;10.704;2022-10-14T12:57:52;17.80;99.90
13742;DHT22;8461;52.356;10.704;2022-10-14T13:02:49;17.80;99.90
13742;DHT22;8461;52.356;10.704;2022-10-14T13:05:36;17.70;99.90
13742;DHT22;8461;52.356;10.704;2022-10-14T13:10:47;17.80;99.90
13742;DHT22;8461;52.356;10.704;2022-10-14T13:18:49;17.90;99.90
13742;DHT22;8461;52.356;10.704;2022-10-14T13:24:12;17.70;99.90
13742;DHT22;8461;52.356;10.704;2022-10-14T13:29:36;17.80;99.90
13742;DHT22;8461;52.356;10.704;2022-10-14T13:32:31;17.60;99.90
13742;DHT22;8461;52.356;10.704;2022-10-14T13:38:02;17.50;99.90
13742;DHT22;8461;52.356;10.704;2022-10-14T13:40:32;17.50;99.90
13742;DHT22;8461;52.356;10.704;2022-10-14T13:43:14;17.50;99.90
13742;DHT22;8461;52.356;10.704;2022-10-14T13:45:43;17.50;99.90
13742;DHT22;8461;52.356;10.704;2022-10-14T13:48:14;17.60;99.90
13742;DHT22;8461;52.356;10.704;2022-10-14T13:50:42;17.60;99.90
13742;DHT22;8461;52.356;10.704;2022-10-14T13:53:20;17.60;99.90
13742;DHT22;8461;52.356;10.704;2022-10-14T13:55:49;17.60;99.90
13742;DHT22;8461;52.356;10.704;2022-10-14T13:58:22;17.50;99.90
13742;DHT22;8461;52.356;10.704;2022-10-14T14:03:35;17.40;99.90
13742;DHT22;8461;52.356;10.704;2022-10-14T14:06:08;17.30;99.90
13742;DHT22;8461;52.356;10.704;2022-10-14T14:08:41;17.20;99.90
13742;DHT22;8461;52.356;10.704;2022-10-14T14:11:08;17.20;99.90
13742;DHT22;8461;52.356;10.704;2022-10-14T14:13:54;17.10;99.90
13742;DHT22;8461;52.356;10.704;2022-10-14T14:16:23;17.20;99.90
13742;DHT22;8461;52.356;10.704;2022-10-14T14:18:50;17.20;99.90
13742;DHT22;8461;52.356;10.704;2022-10-14T14:21:20;17.20;99.90
13742;DHT22;8461;52.356;10.704;2022-10-14T14:23:58;17.30;99.90
13742;DHT22;8461;52.356;10.704;2022-10-14T14:26:42;17.40;99.90
13742;DHT22;8461;52.356;10.704;2022-10-14T14:29:20;17.40;99.90
13742;DHT22;8461;52.356;10.704;2022-10-14T14:31:47;17.40;99.90
13742;DHT22;8461;52.356;10.704;2022-10-14T14:34:16;17.30;99.90
13742;DHT22;8461;52.356;10.704;2022-10-14T14:36:42;17.20;99.90
13742;DHT22;8461;52.356;10.704;2022-10-14T14:39:22;17.10;99.90
13742;DHT22;8461;52.356;10.704;2022-10-14T14:41:52;17.00;99.90
13742;DHT22;8461;52.356;10.704;2022-10-14T14:44:21;16.90;99.90
13742;DHT22;8461;52.356;10.704;2022-10-14T14:46:49;16.80;99.90
13742;DHT22;8461;52.356;10.704;2022-10-14T14:49:19;16.80;99.90
13742;DHT22;8461;52.356;10.704;2022-10-14T14:51:46;16.70;99.90
13742;DHT22;8461;52.356;10.704;2022-10-14T14:54:17;16.60;99.90
13742;DHT22;8461;52.356;10.704;2022-10-14T14:56:51;16.50;99.90
13742;DHT22;8461;52.356;10.704;2022-10-14T14:59:32;16.40;99.90
13742;DHT22;8461;52.356;10.704;2022-10-14T15:02:06;16.50;99.90
13742;DHT22;8461;52.356;10.704;2022-10-14T15:04:35;16.40;99.90
13742;DHT22;8461;52.356;10.704;2022-10-14T15:07:13;16.40;99.90
13742;DHT22;8461;52.356;10.704;2022-10-14T15:09:52;16.40;99.90
13742;DHT22;8461;52.356;10.704;2022-10-14T15:12:20;16.30;99.90
13742;DHT22;8461;52.356;10.704;2022-10-14T15:14:51;16.30;99.90
13742;DHT22;8461;52.356;10.704;2022-10-14T15:17:36;16.30;99.90
13742;DHT22;8461;52.356;10.704;2022-10-14T15:22:40;16.30;99.90
13742;DHT22;8461;52.356;10.704;2022-10-14T15:25:09;16.30;99.90
13742;DHT22;8461;52.356;10.704;2022-10-14T15:30:34;16.20;99.90
13742;DHT22;8461;52.356;10.704;2022-10-14T15:33:19;16.10;99.90
13742;DHT22;8461;52.356;10.704;2022-10-14T15:35:56;16.10;99.90
13742;DHT22;8461;52.356;10.704;2022-10-14T15:38:23;16.10;99.90
13742;DHT22;8461;52.356;10.704;2022-10-14T15:40:49;16.10;99.90
13742;DHT22;8461;52.356;10.704;2022-10-14T15:43:20;16.00;99.90
13742;DHT22;8461;52.356;10.704;2022-10-14T15:45:51;16.00;99.90
13742;DHT22;8461;52.356;10.704;2022-10-14T15:48:48;16.00;99.90
13742;DHT22;8461;52.356;10.704;2022-10-14T15:51:16;15.90;99.90
13742;DHT22;8461;52.356;10.704;2022-10-14T15:53:42;15.90;99.90
13742;DHT22;8461;52.356;10.704;2022-10-14T15:56:07;15.90;99.90
13742;DHT22;8461;52.356;10.704;2022-10-14T15:58:34;15.80;99.90
13742;DHT22;8461;52.356;10.704;2022-10-14T16:01:01;15.80;99.90
13742;DHT22;8461;52.356;10.704;2022-10-14T16:03:27;15.80;99.90
13742;DHT22;8461;52.356;10.704;2022-10-14T16:05:56;15.80;99.90
13742;DHT22;8461;52.356;10.704;2022-10-14T16:08:21;15.90;99.90
13742;DHT22;8461;52.356;10.704;2022-10-14T16:10:47;15.80;99.90
13742;DHT22;8461;52.356;10.704;2022-10-14T16:13:13;15.80;99.90
13742;DHT22;8461;52.356;10.704;2022-10-14T16:15:51;15.80;99.90
13742;DHT22;8461;52.356;10.704;2022-10-14T16:18:17;15.70;99.90
13742;DHT22;8461;52.356;10.704;2022-10-14T16:20:44;15.70;99.90
13742;DHT22;8461;52.356;10.704;2022-10-14T16:23:17;15.70;99.90
13742;DHT22;8461;52.356;10.704;2022-10-14T16:25:44;15.70;99.90
13742;DHT22;8461;52.356;10.704;2022-10-14T16:28:11;15.60;99.90
13742;DHT22;8461;52.356;10.704;2022-10-14T16:30:39;15.60;99.90
13742;DHT22;8461;52.356;10.704;2022-10-14T16:33:05;15.60;99.90
13742;DHT22;8461;52.356;10.704;2022-10-14T16:35:31;15.50;99.90
13742;DHT22;8461;52.356;10.704;2022-10-14T16:37:57;15.50;99.90
13742;DHT22;8461;52.356;10.704;2022-10-14T16:40:23;15.50;99.90
13742;DHT22;8461;52.356;10.704;2022-10-14T16:42:49;15.50;99.90
13742;DHT22;8461;52.356;10.704;2022-10-14T16:45:15;15.50;99.90
13742;DHT22;8461;52.356;10.704;2022-10-14T16:47:41;15.40;99.90
13742;DHT22;8461;52.356;10.704;2022-10-14T16:50:07;15.50;99.90
13742;DHT22;8461;52.356;10.704;2022-10-14T16:52:33;15.40;99.90
13742;DHT22;8461;52.356;10.704;2022-10-14T16:55:20;15.50;99.90
13742;DHT22;8461;52.356;10.704;2022-10-14T16:57:46;15.40;99.90
13742;DHT22;8461;52.356;10.704;2022-10-14T17:00:13;15.40;99.90
13742;DHT22;8461;52.356;10.704;2022-10-14T17:02:39;15.40;99.90
13742;DHT22;8461;52.356;10.704;2022-10-14T17:05:05;15.40;99.90
13742;DHT22;8461;52.356;10.704;2022-10-14T17:07:30;15.40;99.90
13742;DHT22;8461;52.356;10.704;2022-10-14T17:09:58;15.40;99.90
13742;DHT22;8461;52.356;10.704;2022-10-14T17:12:23;15.40;99.90
13742;DHT22;8461;52.356;10.704;2022-10-14T17:14:50;15.30;99.90
13742;DHT22;8461;52.356;10.704;2022-10-14T17:17:16;15.40;99.90
13742;DHT22;8461;52.356;10.704;2022-10-14T17:19:41;15.40;99.90
13742;DHT22;8461;52.356;10.704;2022-10-14T17:22:07;15.40;99.90
13742;DHT22;8461;52.356;10.704;2022-10-14T17:24:33;15.40;99.90
13742;DHT22;8461;52.356;10.704;2022-10-14T17:26:58;15.40;99.90
13742;DHT22;8461;52.356;10.704;2022-10-14T17:29:28;15.30;99.90
13742;DHT22;8461;52.356;10.704;2022-10-14T17:31:54;15.30;99.90
13742;DHT22;8461;52.356;10.704;2022-10-14T17:34:19;15.30;99.90
13742;DHT22;8461;52.356;10.704;2022-10-14T17:36:45;15.30;99.90
13742;DHT22;8461;52.356;10.704;2022-10-14T17:39:11;15.30;99.90
13742;DHT22;8461;52.356;10.704;2022-10-14T17:41:38;15.30;99.90
13742;DHT22;8461;52.356;10.704;2022-10-14T17:44:04;15.30;99.90
13742;DHT22;8461;52.356;10.704;2022-10-14T17:46:30;15.30;99.90
13742;DHT22;8461;52.356;10.704;2022-10-14T17:48:58;15.20;99.90
13742;DHT22;8461;52.356;10.704;2022-10-14T17:51:25;15.20;99.90